sensor_id;sensor_type;location;lat;lon;timestamp;P1;durP1;ratioP1;P2;durP2;ratioP2
1585;SDS011;786;48.718;9.514;2023-01-25T00:02:10;21.77;;;13.18;;
1585;SDS011;786;48.718;9.514;2023-01-25T00:04:36;20.83;;;12.35;;
1585;SDS011;786;48.718;9.514;2023-01-25T00:07:03;23.23;;;14.80;;
1585;SDS011;786;48.718;9.514;2023-01-25T00:09:29;24.67;;;14.65;;
1585;SDS011;786;48.718;9.514;2023-01-25T00:11:57;22.90;;;15.55;;
1585;SDS011;786;48.718;9.514;2023-01-25T00:14:23;19.55;;;13.75;;
1585;SDS011;786;48.718;9.514;2023-01-25T00:16:50;22.48;;;13.15;;
1585;SDS011;786;48.718;9.514;2023-01-25T00:19:16;21.80;;;12.38;;
1585;SDS011;786;48.718;9.514;2023-01-25T00:21:43;24.08;;;13.32;;
1585;SDS011;786;48.718;9.514;2023-01-25T00:24:09;22.75;;;14.18;;
1585;SDS011;786;48.718;9.514;2023-01-25T00:26:38;22.73;;;11.88;;
1585;SDS011;786;48.718;9.514;2023-01-25T00:29:06;22.55;;;13.68;;
1585;SDS011;786;48.718;9.514;2023-01-25T00:31:35;25.10;;;13.50;;
1585;SDS011;786;48.718;9.514;2023-01-25T00:34:05;23.20;;;14.70;;
1585;SDS011;786;48.718;9.514;2023-01-25T00:36:38;21.58;;;14.38;;
1585;SDS011;786;48.718;9.514;2023-01-25T00:39:07;22.77;;;12.18;;
1585;SDS011;786;48.718;9.514;2023-01-25T00:41:36;23.30;;;13.52;;
1585;SDS011;786;48.718;9.514;2023-01-25T00:44:02;24.63;;;13.60;;
1585;SDS011;786;48.718;9.514;2023-01-25T00:46:30;20.83;;;12.68;;
1585;SDS011;786;48.718;9.514;2023-01-25T00:48:57;19.40;;;11.82;;
1585;SDS011;786;48.718;9.514;2023-01-25T00:51:23;20.33;;;11.82;;
1585;SDS011;786;48.718;9.514;2023-01-25T00:53:50;24.33;;;13.75;;
1585;SDS011;786;48.718;9.514;2023-01-25T00:56:17;20.02;;;12.35;;
1585;SDS011;786;48.718;9.514;2023-01-25T00:58:43;19.77;;;11.18;;
1585;SDS011;786;48.718;9.514;2023-01-25T01:01:10;19.60;;;11.75;;
1585;SDS011;786;48.718;9.514;2023-01-25T01:03:38;18.60;;;10.43;;
1585;SDS011;786;48.718;9.514;2023-01-25T01:06:05;20.25;;;11.52;;
1585;SDS011;786;48.718;9.514;2023-01-25T01:08:33;18.83;;;11.60;;
1585;SDS011;786;48.718;9.514;2023-01-25T01:11:01;19.88;;;12.30;;
1585;SDS011;786;48.718;9.514;2023-01-25T01:13:28;20.55;;;13.07;;
1585;SDS011;786;48.718;9.514;2023-01-25T01:15:55;21.85;;;13.63;;
1585;SDS011;786;48.718;9.514;2023-01-25T01:18:22;22.40;;;12.95;;
1585;SDS011;786;48.718;9.514;2023-01-25T01:20:50;19.00;;;12.10;;
1585;SDS011;786;48.718;9.514;2023-01-25T01:23:17;23.58;;;14.15;;
1585;SDS011;786;48.718;9.514;2023-01-25T01:25:44;22.75;;;11.98;;
1585;SDS011;786;48.718;9.514;2023-01-25T01:28:11;16.73;;;11.55;;
1585;SDS011;786;48.718;9.514;2023-01-25T01:30:38;18.30;;;11.15;;
1585;SDS011;786;48.718;9.514;2023-01-25T01:33:05;21.80;;;14.02;;
1585;SDS011;786;48.718;9.514;2023-01-25T01:35:31;21.55;;;12.73;;
1585;SDS011;786;48.718;9.514;2023-01-25T01:37:59;22.05;;;13.13;;
1585;SDS011;786;48.718;9.514;2023-01-25T01:40:25;20.80;;;12.98;;
1585;SDS011;786;48.718;9.514;2023-01-25T01:42:56;21.80;;;14.23;;
1585;SDS011;786;48.718;9.514;2023-01-25T01:48:17;19.95;;;10.50;;
1585;SDS011;786;48.718;9.514;2023-01-25T01:50:45;18.45;;;10.68;;
1585;SDS011;786;48.718;9.514;2023-01-25T01:53:14;21.45;;;11.82;;
1585;SDS011;786;48.718;9.514;2023-01-25T01:55:40;20.73;;;11.90;;
1585;SDS011;786;48.718;9.514;2023-01-25T01:58:06;22.40;;;14.77;;
1585;SDS011;786;48.718;9.514;2023-01-25T02:00:33;21.25;;;12.60;;
1585;SDS011;786;48.718;9.514;2023-01-25T02:03:03;20.00;;;12.48;;
1585;SDS011;786;48.718;9.514;2023-01-25T02:05:30;23.45;;;12.75;;
1585;SDS011;786;48.718;9.514;2023-01-25T02:07:59;26.65;;;13.57;;
1585;SDS011;786;48.718;9.514;2023-01-25T02:10:30;21.75;;;12.20;;
1585;SDS011;786;48.718;9.514;2023-01-25T02:12:56;21.33;;;13.65;;
1585;SDS011;786;48.718;9.514;2023-01-25T02:15:26;21.48;;;12.55;;
1585;SDS011;786;48.718;9.514;2023-01-25T02:17:53;20.38;;;11.95;;
1585;SDS011;786;48.718;9.514;2023-01-25T02:20:21;22.98;;;13.45;;
1585;SDS011;786;48.718;9.514;2023-01-25T02:22:54;20.08;;;12.25;;
1585;SDS011;786;48.718;9.514;2023-01-25T02:25:32;20.95;;;12.82;;
1585;SDS011;786;48.718;9.514;2023-01-25T02:27:59;17.92;;;12.38;;
1585;SDS011;786;48.718;9.514;2023-01-25T02:30:28;22.80;;;12.13;;
1585;SDS011;786;48.718;9.514;2023-01-25T02:32:55;20.33;;;12.05;;
1585;SDS011;786;48.718;9.514;2023-01-25T02:35:23;21.45;;;13.07;;
1585;SDS011;786;48.718;9.514;2023-01-25T02:38:00;20.77;;;12.80;;
1585;SDS011;786;48.718;9.514;2023-01-25T02:40:27;19.33;;;11.63;;
1585;SDS011;786;48.718;9.514;2023-01-25T02:42:55;19.05;;;11.43;;
1585;SDS011;786;48.718;9.514;2023-01-25T02:45:22;19.42;;;12.80;;
1585;SDS011;786;48.718;9.514;2023-01-25T02:47:52;18.10;;;10.90;;
1585;SDS011;786;48.718;9.514;2023-01-25T02:50:19;19.98;;;11.15;;
1585;SDS011;786;48.718;9.514;2023-01-25T02:52:45;21.02;;;11.48;;
1585;SDS011;786;48.718;9.514;2023-01-25T02:55:11;20.23;;;12.05;;
1585;SDS011;786;48.718;9.514;2023-01-25T02:57:38;18.77;;;10.48;;
1585;SDS011;786;48.718;9.514;2023-01-25T03:00:06;19.40;;;12.20;;
1585;SDS011;786;48.718;9.514;2023-01-25T03:02:33;18.25;;;11.27;;
1585;SDS011;786;48.718;9.514;2023-01-25T03:05:00;21.98;;;13.00;;
1585;SDS011;786;48.718;9.514;2023-01-25T03:07:26;18.80;;;11.38;;
1585;SDS011;786;48.718;9.514;2023-01-25T03:09:53;20.38;;;13.10;;
1585;SDS011;786;48.718;9.514;2023-01-25T03:12:19;16.35;;;9.32;;
1585;SDS011;786;48.718;9.514;2023-01-25T03:14:45;23.98;;;14.48;;
1585;SDS011;786;48.718;9.514;2023-01-25T03:17:13;20.73;;;11.57;;
1585;SDS011;786;48.718;9.514;2023-01-25T03:19:39;27.00;;;16.30;;
1585;SDS011;786;48.718;9.514;2023-01-25T03:22:06;29.80;;;17.30;;
1585;SDS011;786;48.718;9.514;2023-01-25T03:24:33;48.67;;;24.15;;
1585;SDS011;786;48.718;9.514;2023-01-25T03:27:00;41.55;;;23.98;;
1585;SDS011;786;48.718;9.514;2023-01-25T03:29:41;23.65;;;13.43;;
1585;SDS011;786;48.718;9.514;2023-01-25T03:32:07;21.98;;;13.40;;
1585;SDS011;786;48.718;9.514;2023-01-25T03:34:35;34.33;;;19.23;;
1585;SDS011;786;48.718;9.514;2023-01-25T03:37:01;26.90;;;15.85;;
1585;SDS011;786;48.718;9.514;2023-01-25T03:39:28;30.35;;;21.95;;
1585;SDS011;786;48.718;9.514;2023-01-25T03:41:54;26.00;;;15.68;;
1585;SDS011;786;48.718;9.514;2023-01-25T03:44:20;28.17;;;18.13;;
1585;SDS011;786;48.718;9.514;2023-01-25T03:46:47;34.58;;;23.42;;
1585;SDS011;786;48.718;9.514;2023-01-25T03:49:13;33.22;;;23.83;;
1585;SDS011;786;48.718;9.514;2023-01-25T03:51:41;26.08;;;17.38;;
1585;SDS011;786;48.718;9.514;2023-01-25T03:54:07;19.05;;;12.63;;
1585;SDS011;786;48.718;9.514;2023-01-25T03:56:34;20.35;;;11.50;;
1585;SDS011;786;48.718;9.514;2023-01-25T03:59:01;19.48;;;13.93;;
1585;SDS011;786;48.718;9.514;2023-01-25T04:01:27;19.38;;;12.10;;
1585;SDS011;786;48.718;9.514;2023-01-25T04:03:54;16.35;;;12.32;;
1585;SDS011;786;48.718;9.514;2023-01-25T04:06:20;16.90;;;9.50;;
1585;SDS011;786;48.718;9.514;2023-01-25T04:08:48;16.27;;;11.00;;
1585;SDS011;786;48.718;9.514;2023-01-25T04:11:15;16.67;;;10.70;;
1585;SDS011;786;48.718;9.514;2023-01-25T04:13:41;16.30;;;11.20;;
1585;SDS011;786;48.718;9.514;2023-01-25T04:16:08;16.95;;;11.52;;
1585;SDS011;786;48.718;9.514;2023-01-25T04:18:36;17.85;;;10.93;;
1585;SDS011;786;48.718;9.514;2023-01-25T04:21:03;18.48;;;13.02;;
1585;SDS011;786;48.718;9.514;2023-01-25T04:23:29;19.38;;;12.18;;
1585;SDS011;786;48.718;9.514;2023-01-25T04:25:58;16.85;;;11.82;;
1585;SDS011;786;48.718;9.514;2023-01-25T04:28:25;19.20;;;11.55;;
1585;SDS011;786;48.718;9.514;2023-01-25T04:30:52;17.58;;;10.48;;
1585;SDS011;786;48.718;9.514;2023-01-25T04:33:19;16.20;;;9.98;;
1585;SDS011;786;48.718;9.514;2023-01-25T04:35:46;18.20;;;11.57;;
1585;SDS011;786;48.718;9.514;2023-01-25T04:38:12;17.23;;;12.95;;
1585;SDS011;786;48.718;9.514;2023-01-25T04:40:39;16.95;;;11.05;;
1585;SDS011;786;48.718;9.514;2023-01-25T04:43:06;16.13;;;12.57;;
1585;SDS011;786;48.718;9.514;2023-01-25T04:45:33;19.50;;;12.82;;
1585;SDS011;786;48.718;9.514;2023-01-25T04:48:01;18.88;;;13.45;;
1585;SDS011;786;48.718;9.514;2023-01-25T04:50:29;16.65;;;9.35;;
1585;SDS011;786;48.718;9.514;2023-01-25T04:52:55;20.42;;;13.40;;
1585;SDS011;786;48.718;9.514;2023-01-25T04:55:22;18.73;;;15.00;;
1585;SDS011;786;48.718;9.514;2023-01-25T04:57:48;18.73;;;12.40;;
1585;SDS011;786;48.718;9.514;2023-01-25T05:00:17;16.52;;;10.93;;
1585;SDS011;786;48.718;9.514;2023-01-25T05:02:44;21.55;;;13.30;;
1585;SDS011;786;48.718;9.514;2023-01-25T05:05:10;17.05;;;12.23;;
1585;SDS011;786;48.718;9.514;2023-01-25T05:07:36;16.95;;;10.02;;
1585;SDS011;786;48.718;9.514;2023-01-25T05:10:03;16.40;;;11.10;;
1585;SDS011;786;48.718;9.514;2023-01-25T05:12:30;17.17;;;9.98;;
1585;SDS011;786;48.718;9.514;2023-01-25T05:14:57;17.42;;;11.07;;
1585;SDS011;786;48.718;9.514;2023-01-25T05:17:24;21.40;;;13.38;;
1585;SDS011;786;48.718;9.514;2023-01-25T05:19:51;16.23;;;11.73;;
1585;SDS011;786;48.718;9.514;2023-01-25T05:22:17;22.30;;;16.42;;
1585;SDS011;786;48.718;9.514;2023-01-25T05:24:45;22.02;;;16.08;;
1585;SDS011;786;48.718;9.514;2023-01-25T05:27:12;25.20;;;17.13;;
1585;SDS011;786;48.718;9.514;2023-01-25T05:29:39;19.23;;;13.75;;
1585;SDS011;786;48.718;9.514;2023-01-25T05:32:08;19.00;;;15.48;;
1585;SDS011;786;48.718;9.514;2023-01-25T05:34:36;20.80;;;12.00;;
1585;SDS011;786;48.718;9.514;2023-01-25T05:37:03;19.90;;;14.52;;
1585;SDS011;786;48.718;9.514;2023-01-25T05:39:30;30.15;;;26.95;;
1585;SDS011;786;48.718;9.514;2023-01-25T05:41:57;18.25;;;14.45;;
1585;SDS011;786;48.718;9.514;2023-01-25T05:44:23;15.75;;;10.60;;
1585;SDS011;786;48.718;9.514;2023-01-25T05:46:50;16.05;;;10.38;;
1585;SDS011;786;48.718;9.514;2023-01-25T05:49:16;14.68;;;10.85;;
1585;SDS011;786;48.718;9.514;2023-01-25T05:51:44;17.65;;;10.73;;
1585;SDS011;786;48.718;9.514;2023-01-25T05:54:12;23.58;;;16.63;;
1585;SDS011;786;48.718;9.514;2023-01-25T05:56:39;16.50;;;9.90;;
1585;SDS011;786;48.718;9.514;2023-01-25T05:59:06;17.42;;;9.90;;
1585;SDS011;786;48.718;9.514;2023-01-25T06:01:32;18.55;;;11.02;;
1585;SDS011;786;48.718;9.514;2023-01-25T06:03:58;19.00;;;12.05;;
1585;SDS011;786;48.718;9.514;2023-01-25T06:06:25;19.02;;;12.70;;
1585;SDS011;786;48.718;9.514;2023-01-25T06:08:53;17.02;;;11.23;;
1585;SDS011;786;48.718;9.514;2023-01-25T06:11:20;15.38;;;10.02;;
1585;SDS011;786;48.718;9.514;2023-01-25T06:13:47;17.30;;;10.35;;
1585;SDS011;786;48.718;9.514;2023-01-25T06:16:14;15.32;;;11.07;;
1585;SDS011;786;48.718;9.514;2023-01-25T06:18:41;17.13;;;11.68;;
1585;SDS011;786;48.718;9.514;2023-01-25T06:21:08;15.07;;;10.35;;
1585;SDS011;786;48.718;9.514;2023-01-25T06:23:34;19.27;;;11.35;;
1585;SDS011;786;48.718;9.514;2023-01-25T06:26:03;18.60;;;12.82;;
1585;SDS011;786;48.718;9.514;2023-01-25T06:28:31;18.75;;;13.70;;
1585;SDS011;786;48.718;9.514;2023-01-25T06:31:02;22.67;;;16.40;;
1585;SDS011;786;48.718;9.514;2023-01-25T06:35:58;22.08;;;17.30;;
1585;SDS011;786;48.718;9.514;2023-01-25T06:38:25;19.80;;;13.02;;
1585;SDS011;786;48.718;9.514;2023-01-25T06:40:51;21.13;;;15.65;;
1585;SDS011;786;48.718;9.514;2023-01-25T06:43:19;22.77;;;13.07;;
1585;SDS011;786;48.718;9.514;2023-01-25T06:45:45;19.55;;;13.32;;
1585;SDS011;786;48.718;9.514;2023-01-25T06:48:12;22.52;;;14.05;;
1585;SDS011;786;48.718;9.514;2023-01-25T06:50:38;19.63;;;14.52;;
1585;SDS011;786;48.718;9.514;2023-01-25T06:53:04;23.48;;;14.23;;
1585;SDS011;786;48.718;9.514;2023-01-25T06:55:31;22.70;;;14.75;;
1585;SDS011;786;48.718;9.514;2023-01-25T06:57:58;17.92;;;12.32;;
1585;SDS011;786;48.718;9.514;2023-01-25T07:00:26;18.42;;;10.85;;
1585;SDS011;786;48.718;9.514;2023-01-25T07:02:52;19.83;;;14.00;;
1585;SDS011;786;48.718;9.514;2023-01-25T07:05:19;21.88;;;13.68;;
1585;SDS011;786;48.718;9.514;2023-01-25T07:07:45;20.20;;;13.32;;
1585;SDS011;786;48.718;9.514;2023-01-25T07:10:12;19.58;;;11.10;;
1585;SDS011;786;48.718;9.514;2023-01-25T07:12:38;18.65;;;12.68;;
1585;SDS011;786;48.718;9.514;2023-01-25T07:15:05;19.50;;;13.13;;
1585;SDS011;786;48.718;9.514;2023-01-25T07:17:33;19.02;;;12.02;;
1585;SDS011;786;48.718;9.514;2023-01-25T07:20:00;18.80;;;11.20;;
1585;SDS011;786;48.718;9.514;2023-01-25T07:22:26;17.55;;;12.27;;
1585;SDS011;786;48.718;9.514;2023-01-25T07:24:52;17.83;;;12.88;;
1585;SDS011;786;48.718;9.514;2023-01-25T07:27:21;21.10;;;13.50;;
1585;SDS011;786;48.718;9.514;2023-01-25T07:29:48;17.60;;;13.93;;
1585;SDS011;786;48.718;9.514;2023-01-25T07:32:14;20.77;;;13.50;;
1585;SDS011;786;48.718;9.514;2023-01-25T07:34:42;17.17;;;11.57;;
1585;SDS011;786;48.718;9.514;2023-01-25T07:37:08;16.20;;;11.48;;
1585;SDS011;786;48.718;9.514;2023-01-25T07:39:34;20.10;;;13.00;;
1585;SDS011;786;48.718;9.514;2023-01-25T07:42:01;17.08;;;11.75;;
1585;SDS011;786;48.718;9.514;2023-01-25T07:44:27;17.05;;;11.13;;
1585;SDS011;786;48.718;9.514;2023-01-25T07:46:54;17.48;;;11.73;;
1585;SDS011;786;48.718;9.514;2023-01-25T07:49:20;19.48;;;12.77;;
1585;SDS011;786;48.718;9.514;2023-01-25T07:51:48;17.25;;;12.82;;
1585;SDS011;786;48.718;9.514;2023-01-25T07:54:14;19.15;;;13.98;;
1585;SDS011;786;48.718;9.514;2023-01-25T07:56:41;20.35;;;13.07;;
1585;SDS011;786;48.718;9.514;2023-01-25T07:59:08;19.02;;;11.60;;
1585;SDS011;786;48.718;9.514;2023-01-25T08:01:35;20.73;;;13.48;;
1585;SDS011;786;48.718;9.514;2023-01-25T08:04:03;23.20;;;13.98;;
1585;SDS011;786;48.718;9.514;2023-01-25T08:06:30;20.13;;;11.40;;
1585;SDS011;786;48.718;9.514;2023-01-25T08:09:02;18.65;;;13.48;;
1585;SDS011;786;48.718;9.514;2023-01-25T08:11:30;18.50;;;12.40;;
1585;SDS011;786;48.718;9.514;2023-01-25T08:13:57;22.65;;;12.55;;
1585;SDS011;786;48.718;9.514;2023-01-25T08:16:26;22.85;;;15.02;;
1585;SDS011;786;48.718;9.514;2023-01-25T08:18:53;20.05;;;12.13;;
1585;SDS011;786;48.718;9.514;2023-01-25T08:21:21;18.05;;;10.82;;
1585;SDS011;786;48.718;9.514;2023-01-25T08:23:49;21.35;;;12.65;;
1585;SDS011;786;48.718;9.514;2023-01-25T08:26:17;19.63;;;11.63;;
1585;SDS011;786;48.718;9.514;2023-01-25T08:28:43;16.60;;;11.57;;
1585;SDS011;786;48.718;9.514;2023-01-25T08:31:11;15.43;;;10.88;;
1585;SDS011;786;48.718;9.514;2023-01-25T08:33:38;19.35;;;14.82;;
1585;SDS011;786;48.718;9.514;2023-01-25T08:36:06;22.33;;;13.52;;
1585;SDS011;786;48.718;9.514;2023-01-25T08:38:33;18.38;;;13.80;;
1585;SDS011;786;48.718;9.514;2023-01-25T08:41:03;20.73;;;13.07;;
1585;SDS011;786;48.718;9.514;2023-01-25T08:43:32;21.20;;;14.48;;
1585;SDS011;786;48.718;9.514;2023-01-25T08:45:59;21.33;;;14.45;;
1585;SDS011;786;48.718;9.514;2023-01-25T08:48:25;22.92;;;13.25;;
1585;SDS011;786;48.718;9.514;2023-01-25T08:50:52;19.92;;;12.35;;
1585;SDS011;786;48.718;9.514;2023-01-25T08:53:18;19.77;;;14.52;;
1585;SDS011;786;48.718;9.514;2023-01-25T08:55:45;20.92;;;13.32;;
1585;SDS011;786;48.718;9.514;2023-01-25T08:58:11;20.48;;;12.90;;
1585;SDS011;786;48.718;9.514;2023-01-25T09:00:39;22.88;;;15.57;;
1585;SDS011;786;48.718;9.514;2023-01-25T09:03:06;21.45;;;14.38;;
1585;SDS011;786;48.718;9.514;2023-01-25T09:05:33;21.95;;;13.68;;
1585;SDS011;786;48.718;9.514;2023-01-25T09:07:59;22.08;;;13.85;;
1585;SDS011;786;48.718;9.514;2023-01-25T09:10:26;22.25;;;12.40;;
1585;SDS011;786;48.718;9.514;2023-01-25T09:12:52;21.00;;;13.55;;
1585;SDS011;786;48.718;9.514;2023-01-25T09:15:19;20.85;;;13.25;;
1585;SDS011;786;48.718;9.514;2023-01-25T09:17:48;19.50;;;13.30;;
1585;SDS011;786;48.718;9.514;2023-01-25T09:20:15;20.30;;;12.07;;
1585;SDS011;786;48.718;9.514;2023-01-25T09:22:42;20.33;;;12.93;;
1585;SDS011;786;48.718;9.514;2023-01-25T09:25:08;19.05;;;11.70;;
1585;SDS011;786;48.718;9.514;2023-01-25T09:27:35;17.75;;;10.80;;
1585;SDS011;786;48.718;9.514;2023-01-25T09:30:02;22.35;;;13.27;;
1585;SDS011;786;48.718;9.514;2023-01-25T09:32:29;19.23;;;11.55;;
1585;SDS011;786;48.718;9.514;2023-01-25T09:34:57;21.77;;;15.32;;
1585;SDS011;786;48.718;9.514;2023-01-25T09:37:23;18.83;;;11.88;;
1585;SDS011;786;48.718;9.514;2023-01-25T09:39:49;17.00;;;10.95;;
1585;SDS011;786;48.718;9.514;2023-01-25T09:42:20;20.45;;;13.13;;
1585;SDS011;786;48.718;9.514;2023-01-25T09:45:06;18.02;;;12.93;;
1585;SDS011;786;48.718;9.514;2023-01-25T09:47:37;20.58;;;11.55;;
1585;SDS011;786;48.718;9.514;2023-01-25T09:50:15;18.38;;;12.52;;
1585;SDS011;786;48.718;9.514;2023-01-25T09:52:54;18.38;;;11.55;;
1585;SDS011;786;48.718;9.514;2023-01-25T09:55:51;18.60;;;11.90;;
1585;SDS011;786;48.718;9.514;2023-01-25T09:58:20;17.40;;;11.85;;
1585;SDS011;786;48.718;9.514;2023-01-25T10:00:49;22.80;;;15.93;;
1585;SDS011;786;48.718;9.514;2023-01-25T10:03:20;22.60;;;13.40;;
1585;SDS011;786;48.718;9.514;2023-01-25T10:05:50;21.15;;;13.52;;
1585;SDS011;786;48.718;9.514;2023-01-25T10:08:19;23.20;;;14.35;;
1585;SDS011;786;48.718;9.514;2023-01-25T10:10:51;18.63;;;11.88;;
1585;SDS011;786;48.718;9.514;2023-01-25T10:13:21;19.90;;;14.15;;
1585;SDS011;786;48.718;9.514;2023-01-25T10:15:49;18.63;;;12.20;;
1585;SDS011;786;48.718;9.514;2023-01-25T10:18:18;15.75;;;10.48;;
1585;SDS011;786;48.718;9.514;2023-01-25T10:20:54;21.27;;;12.85;;
1585;SDS011;786;48.718;9.514;2023-01-25T10:23:25;17.17;;;11.93;;
1585;SDS011;786;48.718;9.514;2023-01-25T10:25:58;19.23;;;13.50;;
1585;SDS011;786;48.718;9.514;2023-01-25T10:28:28;18.48;;;12.27;;
1585;SDS011;786;48.718;9.514;2023-01-25T10:31:00;19.10;;;13.45;;
1585;SDS011;786;48.718;9.514;2023-01-25T10:33:28;16.27;;;10.27;;
1585;SDS011;786;48.718;9.514;2023-01-25T10:35:57;20.45;;;12.05;;
1585;SDS011;786;48.718;9.514;2023-01-25T10:38:27;19.38;;;11.60;;
1585;SDS011;786;48.718;9.514;2023-01-25T10:40:56;19.15;;;13.73;;
1585;SDS011;786;48.718;9.514;2023-01-25T10:43:27;18.02;;;12.73;;
1585;SDS011;786;48.718;9.514;2023-01-25T10:45:54;18.35;;;11.95;;
1585;SDS011;786;48.718;9.514;2023-01-25T10:48:20;17.45;;;11.68;;
1585;SDS011;786;48.718;9.514;2023-01-25T10:50:49;20.63;;;14.70;;
1585;SDS011;786;48.718;9.514;2023-01-25T10:53:23;23.23;;;13.32;;
1585;SDS011;786;48.718;9.514;2023-01-25T10:55:55;17.30;;;11.32;;
1585;SDS011;786;48.718;9.514;2023-01-25T10:58:31;19.80;;;13.98;;
1585;SDS011;786;48.718;9.514;2023-01-25T11:00:58;19.10;;;13.60;;
1585;SDS011;786;48.718;9.514;2023-01-25T11:03:31;18.88;;;12.60;;
1585;SDS011;786;48.718;9.514;2023-01-25T11:05:59;22.20;;;13.60;;
1585;SDS011;786;48.718;9.514;2023-01-25T11:08:32;21.30;;;12.25;;
1585;SDS011;786;48.718;9.514;2023-01-25T11:10:59;18.02;;;12.65;;
1585;SDS011;786;48.718;9.514;2023-01-25T11:13:39;17.23;;;11.63;;
1585;SDS011;786;48.718;9.514;2023-01-25T11:16:13;16.95;;;12.05;;
1585;SDS011;786;48.718;9.514;2023-01-25T11:18:49;17.35;;;11.38;;
1585;SDS011;786;48.718;9.514;2023-01-25T11:21:17;17.02;;;11.65;;
1585;SDS011;786;48.718;9.514;2023-01-25T11:23:57;19.48;;;12.43;;
1585;SDS011;786;48.718;9.514;2023-01-25T11:26:25;17.13;;;13.32;;
1585;SDS011;786;48.718;9.514;2023-01-25T11:29:04;20.20;;;14.93;;
1585;SDS011;786;48.718;9.514;2023-01-25T11:31:32;18.55;;;10.10;;
1585;SDS011;786;48.718;9.514;2023-01-25T11:33:58;22.65;;;16.60;;
1585;SDS011;786;48.718;9.514;2023-01-25T11:36:26;19.73;;;12.68;;
1585;SDS011;786;48.718;9.514;2023-01-25T11:39:06;19.13;;;14.18;;
1585;SDS011;786;48.718;9.514;2023-01-25T11:41:45;17.25;;;12.70;;
1585;SDS011;786;48.718;9.514;2023-01-25T11:44:21;16.25;;;9.88;;
1585;SDS011;786;48.718;9.514;2023-01-25T11:47:10;17.05;;;12.18;;
1585;SDS011;786;48.718;9.514;2023-01-25T11:49:44;20.70;;;14.75;;
1585;SDS011;786;48.718;9.514;2023-01-25T11:52:24;18.17;;;10.82;;
1585;SDS011;786;48.718;9.514;2023-01-25T11:54:59;18.90;;;13.45;;
1585;SDS011;786;48.718;9.514;2023-01-25T11:57:33;15.23;;;10.95;;
1585;SDS011;786;48.718;9.514;2023-01-25T12:00:16;18.02;;;14.77;;
1585;SDS011;786;48.718;9.514;2023-01-25T12:02:54;20.70;;;16.92;;
1585;SDS011;786;48.718;9.514;2023-01-25T12:05:33;19.10;;;13.13;;
1585;SDS011;786;48.718;9.514;2023-01-25T12:08:11;17.92;;;12.00;;
1585;SDS011;786;48.718;9.514;2023-01-25T12:10:49;20.95;;;13.25;;
1585;SDS011;786;48.718;9.514;2023-01-25T12:13:21;20.65;;;14.90;;
1585;SDS011;786;48.718;9.514;2023-01-25T12:16:01;19.13;;;14.50;;
1585;SDS011;786;48.718;9.514;2023-01-25T12:18:42;17.83;;;13.07;;
1585;SDS011;786;48.718;9.514;2023-01-25T12:21:18;15.68;;;10.77;;
1585;SDS011;786;48.718;9.514;2023-01-25T12:23:56;17.02;;;13.82;;
1585;SDS011;786;48.718;9.514;2023-01-25T12:26:33;19.48;;;12.88;;
1585;SDS011;786;48.718;9.514;2023-01-25T12:29:20;13.50;;;10.90;;
1585;SDS011;786;48.718;9.514;2023-01-25T12:31:51;16.00;;;10.50;;
1585;SDS011;786;48.718;9.514;2023-01-25T12:34:21;15.68;;;11.50;;
1585;SDS011;786;48.718;9.514;2023-01-25T12:36:50;19.70;;;11.98;;
1585;SDS011;786;48.718;9.514;2023-01-25T12:39:18;16.98;;;11.73;;
1585;SDS011;786;48.718;9.514;2023-01-25T12:41:50;17.50;;;11.00;;
1585;SDS011;786;48.718;9.514;2023-01-25T12:44:20;18.60;;;11.88;;
1585;SDS011;786;48.718;9.514;2023-01-25T12:46:51;18.00;;;12.18;;
1585;SDS011;786;48.718;9.514;2023-01-25T12:49:22;19.27;;;14.68;;
1585;SDS011;786;48.718;9.514;2023-01-25T12:51:52;19.40;;;15.00;;
1585;SDS011;786;48.718;9.514;2023-01-25T12:54:19;20.20;;;15.38;;
1585;SDS011;786;48.718;9.514;2023-01-25T12:56:53;19.08;;;14.35;;
1585;SDS011;786;48.718;9.514;2023-01-25T12:59:26;21.25;;;17.55;;
1585;SDS011;786;48.718;9.514;2023-01-25T13:02:00;19.58;;;12.48;;
1585;SDS011;786;48.718;9.514;2023-01-25T13:04:38;17.63;;;13.00;;
1585;SDS011;786;48.718;9.514;2023-01-25T13:07:15;21.58;;;16.02;;
1585;SDS011;786;48.718;9.514;2023-01-25T13:09:49;20.63;;;13.57;;
1585;SDS011;786;48.718;9.514;2023-01-25T13:12:19;18.63;;;12.20;;
1585;SDS011;786;48.718;9.514;2023-01-25T13:14:45;18.48;;;11.35;;
1585;SDS011;786;48.718;9.514;2023-01-25T13:17:22;13.10;;;9.25;;
1585;SDS011;786;48.718;9.514;2023-01-25T13:19:55;18.27;;;11.80;;
1585;SDS011;786;48.718;9.514;2023-01-25T13:25:22;24.00;;;17.83;;
1585;SDS011;786;48.718;9.514;2023-01-25T13:27:50;18.13;;;12.48;;
1585;SDS011;786;48.718;9.514;2023-01-25T13:30:28;18.52;;;12.07;;
1585;SDS011;786;48.718;9.514;2023-01-25T13:32:57;19.10;;;11.52;;
1585;SDS011;786;48.718;9.514;2023-01-25T13:35:25;19.17;;;13.88;;
1585;SDS011;786;48.718;9.514;2023-01-25T13:41:15;14.63;;;11.25;;
1585;SDS011;786;48.718;9.514;2023-01-25T13:43:44;14.98;;;10.52;;
1585;SDS011;786;48.718;9.514;2023-01-25T13:46:14;16.58;;;11.98;;
1585;SDS011;786;48.718;9.514;2023-01-25T13:48:44;18.10;;;11.23;;
1585;SDS011;786;48.718;9.514;2023-01-25T13:51:13;16.33;;;10.23;;
1585;SDS011;786;48.718;9.514;2023-01-25T13:53:41;18.20;;;14.48;;
1585;SDS011;786;48.718;9.514;2023-01-25T13:56:21;15.68;;;11.25;;
1585;SDS011;786;48.718;9.514;2023-01-25T13:58:51;17.90;;;14.23;;
1585;SDS011;786;48.718;9.514;2023-01-25T14:01:18;17.30;;;12.00;;
1585;SDS011;786;48.718;9.514;2023-01-25T14:03:48;15.57;;;11.02;;
1585;SDS011;786;48.718;9.514;2023-01-25T14:06:16;14.38;;;8.55;;
1585;SDS011;786;48.718;9.514;2023-01-25T14:08:43;16.38;;;13.82;;
1585;SDS011;786;48.718;9.514;2023-01-25T14:11:15;18.67;;;12.95;;
1585;SDS011;786;48.718;9.514;2023-01-25T14:13:54;15.82;;;10.88;;
1585;SDS011;786;48.718;9.514;2023-01-25T14:16:22;15.32;;;10.90;;
1585;SDS011;786;48.718;9.514;2023-01-25T14:18:48;18.23;;;11.85;;
1585;SDS011;786;48.718;9.514;2023-01-25T14:21:15;24.00;;;18.92;;
1585;SDS011;786;48.718;9.514;2023-01-25T14:23:42;22.25;;;19.85;;
1585;SDS011;786;48.718;9.514;2023-01-25T14:26:15;17.13;;;11.68;;
1585;SDS011;786;48.718;9.514;2023-01-25T14:28:43;16.42;;;12.02;;
1585;SDS011;786;48.718;9.514;2023-01-25T14:31:15;16.38;;;12.82;;
1585;SDS011;786;48.718;9.514;2023-01-25T14:33:45;13.80;;;9.55;;
1585;SDS011;786;48.718;9.514;2023-01-25T14:36:12;12.80;;;9.85;;
1585;SDS011;786;48.718;9.514;2023-01-25T14:38:39;10.90;;;9.27;;
1585;SDS011;786;48.718;9.514;2023-01-25T14:41:10;13.95;;;10.15;;
1585;SDS011;786;48.718;9.514;2023-01-25T14:43:38;13.95;;;9.20;;
1585;SDS011;786;48.718;9.514;2023-01-25T14:46:21;13.25;;;9.15;;
1585;SDS011;786;48.718;9.514;2023-01-25T14:49:05;13.27;;;10.43;;
1585;SDS011;786;48.718;9.514;2023-01-25T14:51:33;13.80;;;9.63;;
1585;SDS011;786;48.718;9.514;2023-01-25T14:54:00;12.15;;;9.40;;
1585;SDS011;786;48.718;9.514;2023-01-25T14:56:35;14.20;;;7.80;;
1585;SDS011;786;48.718;9.514;2023-01-25T14:59:14;13.35;;;8.85;;
1585;SDS011;786;48.718;9.514;2023-01-25T15:01:47;12.88;;;8.63;;
1585;SDS011;786;48.718;9.514;2023-01-25T15:04:15;11.25;;;7.80;;
1585;SDS011;786;48.718;9.514;2023-01-25T15:06:48;13.13;;;8.18;;
1585;SDS011;786;48.718;9.514;2023-01-25T15:09:38;10.68;;;8.85;;
1585;SDS011;786;48.718;9.514;2023-01-25T15:12:24;10.95;;;8.20;;
1585;SDS011;786;48.718;9.514;2023-01-25T15:14:53;13.18;;;10.63;;
1585;SDS011;786;48.718;9.514;2023-01-25T15:17:41;12.48;;;8.52;;
1585;SDS011;786;48.718;9.514;2023-01-25T15:23:16;13.13;;;9.40;;
1585;SDS011;786;48.718;9.514;2023-01-25T15:25:52;13.00;;;7.80;;
1585;SDS011;786;48.718;9.514;2023-01-25T15:28:20;12.23;;;8.50;;
1585;SDS011;786;48.718;9.514;2023-01-25T15:30:47;11.30;;;7.60;;